aviador You're here:

CYSC Decoded Metar

SHERBROOKE in QC, CANADA
Report Time2017-06-25 06:00:00
UTC Time2017-06-25 06:49:16
Flight Rules vfr VFR
WindCalm
Visibility9999 m
Phenomena:N/A
Clouds:Scattered 070 Hf
Expected CloudBase > 400 ft AGL from Temp-Dew spread
CeilingNone
Temp14°C (ISA +1)
Dew Point13°C (94% RH)
QNH1010 hPa
Density Alt1,165 ft
Elevation791 ft
Report Wrong Elevation
Raw Report
CYSC 250600Z AUTO 00000KT 9SM SCT070 14/13 A2982 RMK SLP099
DENSITY ALT 900FT=

Extra information for CYSC:More info

Metar Taf Metar & Taf Last 4 Metars F.Rules Stats Wind Profile Meteogram Temp Stats Airport Information Weather charts Add Link Nearby VenuesMetar ALERT Operation Metar Decoded Social comments